createdAt,value
2023-02-08T00:01:25.637Z,-5.11
2023-02-08T00:03:53.736Z,-5.12
2023-02-08T00:06:21.862Z,-5.11
2023-02-08T00:08:49.840Z,-5.14
2023-02-08T00:11:17.892Z,-5.16
2023-02-08T00:13:45.956Z,-5.20
2023-02-08T00:16:14.863Z,-5.26
2023-02-08T00:18:43.064Z,-5.31
2023-02-08T00:21:13.287Z,-5.36
2023-02-08T00:23:41.859Z,-5.41
2023-02-08T00:26:10.533Z,-5.48
2023-02-08T00:28:38.926Z,-5.55
2023-02-08T00:31:07.531Z,-5.61
2023-02-08T00:33:35.850Z,-5.70
2023-02-08T00:36:06.822Z,-5.74
2023-02-08T00:38:36.062Z,-5.76
2023-02-08T00:41:04.779Z,-5.76
2023-02-08T00:43:32.756Z,-5.77
2023-02-08T00:46:01.032Z,-5.77
2023-02-08T00:48:29.685Z,-5.78
2023-02-08T00:51:10.240Z,-5.82
2023-02-08T00:53:40.255Z,-5.80
2023-02-08T00:56:10.550Z,-5.83
2023-02-08T00:58:39.331Z,-5.82
2023-02-08T01:01:07.967Z,-5.67
2023-02-08T01:03:38.392Z,-5.56
2023-02-08T01:06:09.680Z,-5.61
2023-02-08T01:08:37.643Z,-5.60
2023-02-08T01:11:13.411Z,-5.73
2023-02-08T01:13:41.927Z,-5.67
2023-02-08T01:16:16.639Z,-5.82
2023-02-08T01:18:47.662Z,-5.84
2023-02-08T01:21:28.735Z,-5.86
2023-02-08T01:23:57.338Z,-5.99
2023-02-08T01:26:26.613Z,-6.09
2023-02-08T01:28:56.205Z,-6.11
2023-02-08T01:31:29.204Z,-6.13
2023-02-08T01:33:58.713Z,-6.12
2023-02-08T01:36:28.170Z,-6.12
2023-02-08T01:38:57.126Z,-6.13
2023-02-08T01:41:28.928Z,-6.12
2023-02-08T01:44:06.314Z,-6.12
2023-02-08T01:46:37.264Z,-6.09
2023-02-08T01:49:23.670Z,-6.06
2023-02-08T01:52:09.259Z,-6.07
2023-02-08T01:54:43.707Z,-6.10
2023-02-08T01:57:12.516Z,-6.13
2023-02-08T01:59:48.065Z,-6.24
2023-02-08T02:02:22.190Z,-6.35
2023-02-08T02:04:51.783Z,-6.36
2023-02-08T02:07:22.774Z,-6.38
2023-02-08T02:10:03.091Z,-6.33
2023-02-08T02:12:32.349Z,-6.23
2023-02-08T02:15:02.049Z,-6.19
2023-02-08T02:17:30.326Z,-6.19
2023-02-08T02:20:28.265Z,-6.30
2023-02-08T02:23:24.122Z,-6.38
2023-02-08T02:25:52.026Z,-6.30
2023-02-08T02:28:57.887Z,-6.20
2023-02-08T02:31:50.755Z,-6.20
2023-02-08T02:34:34.181Z,-6.23
2023-02-08T02:37:25.600Z,-6.25
2023-02-08T02:40:22.219Z,-6.29
2023-02-08T02:43:24.989Z,-6.29
2023-02-08T02:46:15.375Z,-6.28
2023-02-08T02:49:04.548Z,-6.31
2023-02-08T02:51:57.971Z,-6.37
2023-02-08T02:54:42.300Z,-6.51
2023-02-08T02:57:16.438Z,-6.53
2023-02-08T02:59:47.083Z,-6.60
2023-02-08T03:02:15.128Z,-6.68
2023-02-08T03:04:43.054Z,-6.68
2023-02-08T03:07:20.278Z,-6.71
2023-02-08T03:10:09.507Z,-6.71
2023-02-08T03:12:49.596Z,-6.76
2023-02-08T03:15:48.085Z,-6.82
2023-02-08T03:18:25.146Z,-6.87
2023-02-08T03:21:21.124Z,-6.93
2023-02-08T03:24:06.758Z,-6.97
2023-02-08T03:26:41.607Z,-7.01
2023-02-08T03:29:51.493Z,-7.02
2023-02-08T03:33:15.772Z,-7.06
2023-02-08T03:35:50.466Z,-7.16
2023-02-08T03:38:27.804Z,-7.21
2023-02-08T03:41:00.804Z,-7.19
2023-02-08T03:43:48.073Z,-7.17
2023-02-08T03:46:28.893Z,-7.20
2023-02-08T03:49:02.864Z,-7.21
2023-02-08T03:51:34.491Z,-7.29
2023-02-08T03:54:07.266Z,-7.34
2023-02-08T03:56:56.270Z,-7.40
2023-02-08T03:59:35.794Z,-7.45
2023-02-08T04:02:06.661Z,-7.44
2023-02-08T04:04:40.957Z,-7.48
2023-02-08T04:07:09.479Z,-7.53
2023-02-08T04:09:38.872Z,-7.50
2023-02-08T04:12:07.442Z,-7.52
2023-02-08T04:14:35.508Z,-7.44
2023-02-08T04:17:03.978Z,-7.55
2023-02-08T04:19:32.524Z,-7.59
2023-02-08T04:22:00.567Z,-7.58
2023-02-08T04:24:28.508Z,-7.56
2023-02-08T04:26:59.429Z,-7.55
2023-02-08T04:29:27.855Z,-7.59
2023-02-08T04:31:55.903Z,-7.64
2023-02-08T04:34:24.002Z,-7.62
2023-02-08T04:36:52.379Z,-7.60
2023-02-08T04:39:20.305Z,-7.60
2023-02-08T04:41:48.409Z,-7.60
2023-02-08T04:44:16.882Z,-7.61
2023-02-08T04:46:44.983Z,-7.60
2023-02-08T04:49:13.032Z,-7.60
2023-02-08T04:51:41.278Z,-7.61
2023-02-08T04:54:09.246Z,-7.63
2023-02-08T04:56:37.563Z,-7.72
2023-02-08T04:59:05.645Z,-7.80
2023-02-08T05:01:33.840Z,-7.81
2023-02-08T05:04:02.189Z,-7.85
2023-02-08T05:06:30.464Z,-7.89
2023-02-08T05:08:58.440Z,-7.94
2023-02-08T05:11:27.468Z,-7.96
2023-02-08T05:13:55.411Z,-7.95
2023-02-08T05:16:23.537Z,-7.97
2023-02-08T05:18:51.786Z,-8.02
2023-02-08T05:21:19.792Z,-8.05
2023-02-08T05:23:47.749Z,-8.09
2023-02-08T05:26:15.807Z,-8.09
2023-02-08T05:28:44.223Z,-8.11
2023-02-08T05:31:23.141Z,-8.16
2023-02-08T05:33:53.048Z,-8.26
2023-02-08T05:36:21.625Z,-8.34
2023-02-08T05:38:49.926Z,-8.39
2023-02-08T05:41:18.079Z,-8.42
2023-02-08T05:43:46.345Z,-8.41
2023-02-08T05:46:14.308Z,-8.40
2023-02-08T05:48:42.580Z,-8.39
2023-02-08T05:51:10.784Z,-8.39
2023-02-08T05:53:39.293Z,-8.37
2023-02-08T05:56:07.716Z,-8.32
2023-02-08T05:58:35.908Z,-8.27
2023-02-08T06:01:14.430Z,-8.22
2023-02-08T06:03:42.950Z,-8.21
2023-02-08T06:06:12.008Z,-8.17
2023-02-08T06:08:40.563Z,-8.14
2023-02-08T06:11:08.774Z,-8.06
2023-02-08T06:13:37.104Z,-8.01
2023-02-08T06:16:06.900Z,-7.94
2023-02-08T06:18:35.056Z,-7.83
2023-02-08T06:21:03.246Z,-7.61
2023-02-08T06:23:31.988Z,-7.29
2023-02-08T06:26:00.029Z,-7.01
2023-02-08T06:28:28.403Z,-6.89
2023-02-08T06:30:56.649Z,-6.92
2023-02-08T06:33:25.419Z,-7.01
2023-02-08T06:35:54.264Z,-7.16
2023-02-08T06:38:22.549Z,-7.08
2023-02-08T06:40:51.056Z,-6.90
2023-02-08T06:43:19.273Z,-6.68
2023-02-08T06:45:47.986Z,-6.35
2023-02-08T06:48:16.162Z,-6.08
2023-02-08T06:50:44.467Z,-5.82
2023-02-08T06:53:13.199Z,-5.69
2023-02-08T06:55:41.302Z,-5.56
2023-02-08T06:58:10.174Z,-5.40
2023-02-08T07:00:39.542Z,-5.35
2023-02-08T07:03:09.401Z,-5.47
2023-02-08T07:05:37.815Z,-5.66
2023-02-08T07:08:07.361Z,-5.77
2023-02-08T07:10:35.833Z,-5.81
2023-02-08T07:13:04.533Z,-5.86
2023-02-08T07:15:32.959Z,-5.83
2023-02-08T07:18:01.430Z,-5.68
2023-02-08T07:20:29.816Z,-5.52
2023-02-08T07:22:58.255Z,-5.40
2023-02-08T07:25:26.509Z,-5.24
2023-02-08T07:27:54.716Z,-5.02
2023-02-08T07:30:23.328Z,-4.87
2023-02-08T07:32:51.759Z,-4.75
2023-02-08T07:35:19.915Z,-4.63
2023-02-08T07:37:48.074Z,-4.57
2023-02-08T07:40:16.308Z,-4.48
2023-02-08T07:42:44.534Z,-4.35
2023-02-08T07:45:18.859Z,-4.30
2023-02-08T07:47:47.179Z,-4.25
2023-02-08T07:50:16.851Z,-4.24
2023-02-08T07:52:46.758Z,-4.34
2023-02-08T07:55:17.447Z,-4.41
2023-02-08T07:57:47.576Z,-4.44
2023-02-08T08:00:18.606Z,-4.46
2023-02-08T08:02:46.719Z,-4.48
2023-02-08T08:05:14.921Z,-4.55
2023-02-08T08:07:43.782Z,-4.68
2023-02-08T08:10:12.789Z,-4.77
2023-02-08T08:12:41.046Z,-4.77
2023-02-08T08:15:09.903Z,-4.80
2023-02-08T08:17:42.355Z,-4.86
2023-02-08T08:20:11.837Z,-4.86
2023-02-08T08:22:40.331Z,-4.80
2023-02-08T08:25:08.760Z,-4.75
2023-02-08T08:27:37.750Z,-4.72
2023-02-08T08:30:08.190Z,-4.68
2023-02-08T08:32:38.146Z,-4.66
2023-02-08T08:35:07.897Z,-4.69
2023-02-08T08:37:37.479Z,-4.70
2023-02-08T08:40:07.630Z,-4.65
2023-02-08T08:42:36.827Z,-4.67
2023-02-08T08:45:05.641Z,-4.67
2023-02-08T08:47:34.006Z,-4.58
2023-02-08T08:50:02.369Z,-4.46
2023-02-08T08:52:30.551Z,-4.36
2023-02-08T08:54:59.039Z,-4.32
2023-02-08T08:57:27.470Z,-4.32
2023-02-08T08:59:56.017Z,-4.29
2023-02-08T09:02:24.321Z,-4.22
2023-02-08T09:04:52.858Z,-4.13
2023-02-08T09:07:21.278Z,-4.09
2023-02-08T09:09:49.585Z,-4.06
2023-02-08T09:12:18.121Z,-4.01
2023-02-08T09:14:47.360Z,-3.96
2023-02-08T09:17:16.839Z,-3.89
2023-02-08T09:19:47.431Z,-3.84
2023-02-08T09:22:15.773Z,-3.82
2023-02-08T09:24:44.198Z,-3.76
2023-02-08T09:27:12.300Z,-3.68
2023-02-08T09:29:40.586Z,-3.58
2023-02-08T09:32:10.505Z,-3.42
2023-02-08T09:34:39.223Z,-3.32
2023-02-08T09:37:07.835Z,-3.21
2023-02-08T09:39:36.336Z,-3.11
2023-02-08T09:42:08.434Z,-2.96
2023-02-08T09:44:55.546Z,-2.91
2023-02-08T09:47:32.548Z,-2.96
2023-02-08T09:50:04.266Z,-2.98
2023-02-08T09:52:43.006Z,-2.97
2023-02-08T09:55:20.754Z,-2.91
2023-02-08T09:57:52.255Z,-2.83
2023-02-08T10:00:35.013Z,-2.81
2023-02-08T10:03:04.237Z,-2.80
2023-02-08T10:05:32.982Z,-2.78
2023-02-08T10:08:02.338Z,-2.81
2023-02-08T10:10:43.650Z,-2.80
2023-02-08T10:13:25.660Z,-2.72
2023-02-08T10:16:14.258Z,-2.69
2023-02-08T10:19:07.279Z,-2.63
2023-02-08T10:21:50.217Z,-2.62
2023-02-08T10:24:36.738Z,-2.61
2023-02-08T10:27:32.527Z,-2.57
2023-02-08T10:30:25.677Z,-2.50
2023-02-08T10:33:03.490Z,-2.41
2023-02-08T10:35:38.189Z,-2.32
2023-02-08T10:38:43.995Z,-2.24
2023-02-08T10:41:23.676Z,-2.33
2023-02-08T10:44:01.001Z,-2.34
2023-02-08T10:46:38.483Z,-2.32
2023-02-08T10:49:47.714Z,-2.27
2023-02-08T10:52:16.353Z,-2.25
2023-02-08T10:54:44.709Z,-2.19
2023-02-08T10:57:24.708Z,-2.07
2023-02-08T11:00:03.072Z,-1.93
2023-02-08T11:02:40.490Z,-1.86
2023-02-08T11:05:13.767Z,-1.83
2023-02-08T11:07:42.122Z,-1.75
2023-02-08T11:10:19.632Z,-1.69
2023-02-08T11:13:15.831Z,-1.67
2023-02-08T11:15:52.941Z,-1.67
2023-02-08T11:18:31.170Z,-1.55
2023-02-08T11:21:10.850Z,-1.51
2023-02-08T11:23:43.044Z,-1.46
2023-02-08T11:26:25.506Z,-1.40
2023-02-08T11:28:59.903Z,-1.25
2023-02-08T11:31:28.918Z,-1.10
2023-02-08T11:34:11.720Z,-1.03
2023-02-08T11:36:47.603Z,-0.95
2023-02-08T11:39:21.766Z,-0.87
2023-02-08T11:41:54.788Z,-0.74
2023-02-08T11:44:28.610Z,-0.65
2023-02-08T11:47:00.963Z,-0.60
2023-02-08T11:49:42.000Z,-0.57
2023-02-08T11:52:42.964Z,-0.54
2023-02-08T11:55:24.949Z,-0.56
2023-02-08T11:57:57.934Z,-0.51
2023-02-08T12:00:35.318Z,-0.49
2023-02-08T12:03:16.385Z,-0.44
2023-02-08T12:05:59.122Z,-0.42
2023-02-08T12:09:00.454Z,-0.43
2023-02-08T12:11:38.182Z,-0.42
2023-02-08T12:14:13.114Z,-0.39
2023-02-08T12:16:59.884Z,-0.33
2023-02-08T12:19:52.889Z,-0.35
2023-02-08T12:22:25.079Z,-0.40
2023-02-08T12:25:22.153Z,-0.38
2023-02-08T12:28:28.842Z,-0.34
2023-02-08T12:31:08.523Z,-0.31
2023-02-08T12:33:58.937Z,-0.32
2023-02-08T12:36:37.658Z,-0.42
2023-02-08T12:40:04.526Z,-0.39
2023-02-08T12:42:35.601Z,-0.34
2023-02-08T12:45:34.842Z,-0.29
2023-02-08T12:48:18.960Z,-0.34
2023-02-08T12:51:03.139Z,-0.28
2023-02-08T12:53:38.051Z,-0.27
2023-02-08T12:56:12.809Z,-0.29
2023-02-08T12:58:48.340Z,-0.29
2023-02-08T13:01:21.646Z,-0.26
2023-02-08T13:04:13.699Z,-0.34
2023-02-08T13:06:45.128Z,-0.44
2023-02-08T13:09:42.312Z,-0.52
2023-02-08T13:12:22.546Z,-0.49
2023-02-08T13:15:00.062Z,-0.54
2023-02-08T13:17:49.565Z,-0.64
2023-02-08T13:20:38.903Z,-0.73
2023-02-08T13:23:17.403Z,-0.82
2023-02-08T13:25:47.865Z,-0.84
2023-02-08T13:28:21.402Z,-0.82
2023-02-08T13:31:01.160Z,-0.82
2023-02-08T13:33:55.651Z,-0.83
2023-02-08T13:36:42.790Z,-0.81
2023-02-08T13:39:46.534Z,-0.84
2023-02-08T13:42:29.147Z,-0.84
2023-02-08T13:44:58.866Z,-0.87
2023-02-08T13:47:32.170Z,-0.89
2023-02-08T13:50:27.667Z,-0.90
2023-02-08T13:52:57.373Z,-0.94
2023-02-08T13:55:36.138Z,-0.98
2023-02-08T13:58:37.625Z,-0.96
2023-02-08T14:01:09.408Z,-0.91
2023-02-08T14:03:37.972Z,-0.87
2023-02-08T14:06:41.658Z,-0.86
2023-02-08T14:09:36.829Z,-0.85
2023-02-08T14:12:24.811Z,-0.85
2023-02-08T14:15:15.939Z,-0.89
2023-02-08T14:17:57.892Z,-0.91
2023-02-08T14:20:40.133Z,-0.94
2023-02-08T14:23:26.593Z,-1.01
2023-02-08T14:25:57.207Z,-1.06
2023-02-08T14:28:27.458Z,-1.10
2023-02-08T14:30:58.946Z,-1.11
2023-02-08T14:33:33.383Z,-1.12
2023-02-08T14:36:05.713Z,-1.15
2023-02-08T14:38:51.663Z,-1.18
2023-02-08T14:41:43.152Z,-1.22
2023-02-08T14:44:39.482Z,-1.26
2023-02-08T14:47:25.326Z,-1.33
2023-02-08T14:50:14.096Z,-1.41
2023-02-08T14:53:08.002Z,-1.44
2023-02-08T14:55:47.653Z,-1.48
2023-02-08T14:58:26.852Z,-1.52
2023-02-08T15:01:00.181Z,-1.57
2023-02-08T15:03:32.104Z,-1.62
2023-02-08T15:06:03.974Z,-1.68
2023-02-08T15:08:32.936Z,-1.74
2023-02-08T15:11:01.390Z,-1.78
2023-02-08T15:13:30.953Z,-1.84
2023-02-08T15:16:00.522Z,-1.90
2023-02-08T15:18:32.619Z,-1.95
2023-02-08T15:21:06.046Z,-1.99
2023-02-08T15:23:34.707Z,-2.05
2023-02-08T15:26:05.957Z,-2.14
2023-02-08T15:28:36.934Z,-2.21
2023-02-08T15:31:15.487Z,-2.29
2023-02-08T15:33:45.624Z,-2.36
2023-02-08T15:36:18.745Z,-2.42
2023-02-08T15:38:48.242Z,-2.47
2023-02-08T15:41:27.436Z,-2.51
2023-02-08T15:44:30.864Z,-2.57
2023-02-08T15:47:05.511Z,-2.63
2023-02-08T15:49:38.304Z,-2.68
2023-02-08T15:52:08.472Z,-2.73
2023-02-08T15:54:37.413Z,-2.77
2023-02-08T15:57:38.125Z,-2.81
2023-02-08T16:00:15.785Z,-2.91
2023-02-08T16:02:44.993Z,-3.02
2023-02-08T16:05:25.641Z,-3.05
2023-02-08T16:07:55.086Z,-3.05
2023-02-08T16:10:34.083Z,-3.08
2023-02-08T16:13:15.798Z,-3.10
2023-02-08T16:15:47.176Z,-3.09
2023-02-08T16:18:38.145Z,-3.08
2023-02-08T16:21:26.969Z,-3.08
2023-02-08T16:23:58.584Z,-3.11
2023-02-08T16:26:31.953Z,-3.16
2023-02-08T16:29:07.125Z,-3.21
2023-02-08T16:31:36.081Z,-3.24
2023-02-08T16:34:15.371Z,-3.29
2023-02-08T16:36:48.051Z,-3.34
2023-02-08T16:39:19.371Z,-3.39
2023-02-08T16:41:58.842Z,-3.46
2023-02-08T16:44:37.020Z,-3.52
2023-02-08T16:47:34.760Z,-3.60
2023-02-08T16:50:03.382Z,-3.70
2023-02-08T16:52:33.110Z,-3.79
2023-02-08T16:55:01.935Z,-3.90
2023-02-08T16:57:45.771Z,-3.97
2023-02-08T17:00:24.434Z,-4.05
2023-02-08T17:02:53.708Z,-4.13
2023-02-08T17:05:24.982Z,-4.18
2023-02-08T17:07:53.659Z,-4.22
2023-02-08T17:10:32.961Z,-4.26
2023-02-08T17:13:20.672Z,-4.31
2023-02-08T17:15:51.260Z,-4.38
2023-02-08T17:18:21.636Z,-4.45
2023-02-08T17:20:50.869Z,-4.51
2023-02-08T17:23:19.147Z,-4.55
2023-02-08T17:25:47.759Z,-4.55
2023-02-08T17:28:19.592Z,-4.54
2023-02-08T17:30:49.965Z,-4.54
2023-02-08T17:33:18.872Z,-4.56
2023-02-08T17:35:51.998Z,-4.60
2023-02-08T17:38:21.788Z,-4.65
2023-02-08T17:40:50.510Z,-4.68
2023-02-08T17:43:19.194Z,-4.66
2023-02-08T17:45:47.672Z,-4.63
2023-02-08T17:48:16.474Z,-4.64
2023-02-08T17:50:51.140Z,-4.65
2023-02-08T17:53:20.085Z,-4.68
2023-02-08T17:55:48.672Z,-4.71
2023-02-08T17:58:17.781Z,-4.74
2023-02-08T18:00:46.456Z,-4.78
2023-02-08T18:03:17.356Z,-4.84
2023-02-08T18:05:45.465Z,-4.92
2023-02-08T18:08:14.080Z,-5.03
2023-02-08T18:10:42.804Z,-5.11
2023-02-08T18:13:11.071Z,-5.17
2023-02-08T18:15:39.379Z,-5.24
2023-02-08T18:18:07.534Z,-5.31
2023-02-08T18:20:35.773Z,-5.34
2023-02-08T18:23:03.982Z,-5.34
2023-02-08T18:25:32.107Z,-5.33
2023-02-08T18:28:01.122Z,-5.34
2023-02-08T18:30:29.855Z,-5.40
2023-02-08T18:32:58.071Z,-5.44
2023-02-08T18:35:26.414Z,-5.50
2023-02-08T18:37:54.532Z,-5.52
2023-02-08T18:40:22.529Z,-5.53
2023-02-08T18:42:50.672Z,-5.53
2023-02-08T18:45:20.714Z,-5.53
2023-02-08T18:47:49.042Z,-5.55
2023-02-08T18:50:17.332Z,-5.60
2023-02-08T18:52:45.301Z,-5.65
2023-02-08T18:55:13.545Z,-5.68
2023-02-08T18:57:41.569Z,-5.73
2023-02-08T19:00:10.731Z,-5.75
2023-02-08T19:02:39.695Z,-5.76
2023-02-08T19:05:07.929Z,-5.78
2023-02-08T19:07:36.204Z,-5.76
2023-02-08T19:10:04.892Z,-5.74
2023-02-08T19:12:32.828Z,-5.71
2023-02-08T19:15:00.898Z,-5.68
2023-02-08T19:17:29.027Z,-5.64
2023-02-08T19:19:57.334Z,-5.59
2023-02-08T19:22:25.394Z,-5.55
2023-02-08T19:24:54.516Z,-5.52
2023-02-08T19:27:22.502Z,-5.52
2023-02-08T19:29:52.597Z,-5.52
2023-02-08T19:32:21.284Z,-5.55
2023-02-08T19:34:49.763Z,-5.58
2023-02-08T19:37:18.046Z,-5.58
2023-02-08T19:39:46.137Z,-5.62
2023-02-08T19:42:14.077Z,-5.66
2023-02-08T19:44:42.260Z,-5.68
2023-02-08T19:47:11.096Z,-5.67
2023-02-08T19:49:39.028Z,-5.67
2023-02-08T19:52:07.065Z,-5.66
2023-02-08T19:54:35.081Z,-5.71
2023-02-08T19:57:03.170Z,-5.80
2023-02-08T19:59:33.662Z,-5.90
2023-02-08T20:02:03.299Z,-5.97
2023-02-08T20:04:32.838Z,-6.05
2023-02-08T20:07:00.863Z,-6.12
2023-02-08T20:09:28.766Z,-6.17
2023-02-08T20:11:58.044Z,-6.21
2023-02-08T20:14:29.397Z,-6.22
2023-02-08T20:16:57.643Z,-6.24
2023-02-08T20:19:26.368Z,-6.26
2023-02-08T20:21:54.730Z,-6.25
2023-02-08T20:24:22.848Z,-6.22
2023-02-08T20:26:51.113Z,-6.19
2023-02-08T20:29:19.355Z,-6.18
2023-02-08T20:31:49.645Z,-6.19
2023-02-08T20:34:19.182Z,-6.20
2023-02-08T20:37:06.874Z,-6.20
2023-02-08T20:39:37.304Z,-6.23
2023-02-08T20:42:05.884Z,-6.22
2023-02-08T20:44:34.032Z,-6.20
2023-02-08T20:47:02.110Z,-6.21
2023-02-08T20:49:32.366Z,-6.22
2023-02-08T20:52:00.904Z,-6.21
2023-02-08T20:54:29.194Z,-6.21
2023-02-08T20:56:57.770Z,-6.23
2023-02-08T20:59:25.891Z,-6.25
2023-02-08T21:01:54.145Z,-6.25
2023-02-08T21:04:24.107Z,-6.25
2023-02-08T21:06:53.933Z,-6.27
2023-02-08T21:09:23.060Z,-6.28
2023-02-08T21:11:52.060Z,-6.29
2023-02-08T21:14:23.561Z,-6.32
2023-02-08T21:16:56.009Z,-6.34
2023-02-08T21:19:26.604Z,-6.35
2023-02-08T21:22:00.611Z,-6.43
2023-02-08T21:24:31.048Z,-6.52
2023-02-08T21:26:59.093Z,-6.53
2023-02-08T21:29:29.397Z,-6.52
2023-02-08T21:31:58.831Z,-6.54
2023-02-08T21:34:27.322Z,-6.59
2023-02-08T21:36:55.634Z,-6.61
2023-02-08T21:39:23.667Z,-6.61
2023-02-08T21:41:52.974Z,-6.63
2023-02-08T21:44:21.296Z,-6.64
2023-02-08T21:46:49.302Z,-6.65
2023-02-08T21:49:36.062Z,-6.67
2023-02-08T21:52:22.791Z,-6.68
2023-02-08T21:54:53.815Z,-6.69
2023-02-08T21:57:38.040Z,-6.72
2023-02-08T22:00:08.450Z,-6.76
2023-02-08T22:02:40.815Z,-6.78
2023-02-08T22:05:08.909Z,-6.80
2023-02-08T22:07:44.991Z,-6.81
2023-02-08T22:10:15.534Z,-6.83
2023-02-08T22:12:43.747Z,-6.89
2023-02-08T22:15:14.670Z,-6.95
2023-02-08T22:17:43.077Z,-6.98
2023-02-08T22:20:12.913Z,-7.01
2023-02-08T22:22:40.905Z,-7.06
2023-02-08T22:25:09.491Z,-7.09
2023-02-08T22:27:41.760Z,-7.12
2023-02-08T22:30:12.254Z,-7.19
2023-02-08T22:32:41.782Z,-7.23
2023-02-08T22:35:10.672Z,-7.28
2023-02-08T22:37:39.014Z,-7.32
2023-02-08T22:40:07.434Z,-7.36
2023-02-08T22:42:35.298Z,-7.42
2023-02-08T22:45:03.489Z,-7.46
2023-02-08T22:47:31.389Z,-7.49
2023-02-08T22:49:59.586Z,-7.50
2023-02-08T22:52:27.896Z,-7.50
2023-02-08T22:54:56.320Z,-7.51
2023-02-08T22:57:24.359Z,-7.56
2023-02-08T22:59:52.340Z,-7.61
2023-02-08T23:02:20.513Z,-7.60
2023-02-08T23:04:48.659Z,-7.59
2023-02-08T23:07:17.029Z,-7.61
2023-02-08T23:09:46.126Z,-7.64
2023-02-08T23:12:14.504Z,-7.65
2023-02-08T23:14:42.419Z,-7.65
2023-02-08T23:17:10.352Z,-7.66
2023-02-08T23:19:38.396Z,-7.66
2023-02-08T23:22:06.349Z,-7.66
2023-02-08T23:24:34.506Z,-7.66
2023-02-08T23:27:02.466Z,-7.64
2023-02-08T23:29:30.465Z,-7.65
2023-02-08T23:31:58.515Z,-7.66
2023-02-08T23:34:27.549Z,-7.68
2023-02-08T23:36:55.576Z,-7.77
2023-02-08T23:39:23.957Z,-7.82
2023-02-08T23:41:55.662Z,-7.86
2023-02-08T23:44:25.267Z,-7.92
2023-02-08T23:46:53.237Z,-7.93
2023-02-08T23:49:21.197Z,-7.98
2023-02-08T23:51:49.093Z,-8.01
2023-02-08T23:54:17.040Z,-8.00
2023-02-08T23:56:45.112Z,-8.02
2023-02-08T23:59:13.158Z,-8.04
